sensor_id;sensor_type;location;lat;lon;timestamp;temperature;humidity
7564;DHT22;3823;53.586;10.040;2023-05-07T04:02:49;9.00;99.90
7564;DHT22;3823;53.586;10.040;2023-05-07T04:05:15;9.00;99.90
7564;DHT22;3823;53.586;10.040;2023-05-07T04:07:41;9.00;99.90
7564;DHT22;3823;53.586;10.040;2023-05-07T04:10:07;9.00;99.90
7564;DHT22;3823;53.586;10.040;2023-05-07T04:12:33;9.00;99.90
7564;DHT22;3823;53.586;10.040;2023-05-07T04:14:59;9.00;99.90
7564;DHT22;3823;53.586;10.040;2023-05-07T04:17:24;9.00;99.90
7564;DHT22;3823;53.586;10.040;2023-05-07T04:19:50;9.00;99.90
7564;DHT22;3823;53.586;10.040;2023-05-07T04:22:15;8.90;99.90
7564;DHT22;3823;53.586;10.040;2023-05-07T04:24:41;8.90;99.90
7564;DHT22;3823;53.586;10.040;2023-05-07T04:27:06;8.90;99.90
7564;DHT22;3823;53.586;10.040;2023-05-07T04:29:32;8.90;99.90
7564;DHT22;3823;53.586;10.040;2023-05-07T04:31:57;8.90;99.90
7564;DHT22;3823;53.586;10.040;2023-05-07T04:34:24;8.90;99.90
7564;DHT22;3823;53.586;10.040;2023-05-07T04:36:49;8.90;99.90
7564;DHT22;3823;53.586;10.040;2023-05-07T04:39:15;8.90;99.90
7564;DHT22;3823;53.586;10.040;2023-05-07T04:41:40;8.90;99.90
7564;DHT22;3823;53.586;10.040;2023-05-07T04:44:06;9.00;99.90
7564;DHT22;3823;53.586;10.040;2023-05-07T04:46:31;9.00;99.90
7564;DHT22;3823;53.586;10.040;2023-05-07T04:48:57;9.00;99.90
7564;DHT22;3823;53.586;10.040;2023-05-07T04:51:22;9.00;99.90
7564;DHT22;3823;53.586;10.040;2023-05-07T04:53:48;9.00;99.90
7564;DHT22;3823;53.586;10.040;2023-05-07T04:56:14;9.00;99.90
7564;DHT22;3823;53.586;10.040;2023-05-07T04:58:40;9.00;99.90
7564;DHT22;3823;53.586;10.040;2023-05-07T05:01:05;9.00;99.90
7564;DHT22;3823;53.586;10.040;2023-05-07T05:03:31;9.00;99.90
7564;DHT22;3823;53.586;10.040;2023-05-07T05:05:56;9.00;99.90
7564;DHT22;3823;53.586;10.040;2023-05-07T05:08:24;9.00;99.90
7564;DHT22;3823;53.586;10.040;2023-05-07T05:10:50;9.00;99.90
7564;DHT22;3823;53.586;10.040;2023-05-07T05:13:16;9.00;99.90
7564;DHT22;3823;53.586;10.040;2023-05-07T05:15:41;9.00;99.90
7564;DHT22;3823;53.586;10.040;2023-05-07T05:18:07;9.00;99.90
7564;DHT22;3823;53.586;10.040;2023-05-07T05:20:32;9.00;99.90
7564;DHT22;3823;53.586;10.040;2023-05-07T05:22:58;9.00;99.90
7564;DHT22;3823;53.586;10.040;2023-05-07T05:25:23;9.00;99.90
7564;DHT22;3823;53.586;10.040;2023-05-07T05:27:49;9.00;99.90
7564;DHT22;3823;53.586;10.040;2023-05-07T05:30:14;9.00;99.90
7564;DHT22;3823;53.586;10.040;2023-05-07T05:32:40;9.10;99.90
7564;DHT22;3823;53.586;10.040;2023-05-07T05:35:06;9.10;99.90
7564;DHT22;3823;53.586;10.040;2023-05-07T05:37:31;9.10;99.90
7564;DHT22;3823;53.586;10.040;2023-05-07T05:39:57;9.10;99.90
7564;DHT22;3823;53.586;10.040;2023-05-07T05:42:23;9.10;99.90
7564;DHT22;3823;53.586;10.040;2023-05-07T05:44:48;9.10;99.90
7564;DHT22;3823;53.586;10.040;2023-05-07T05:47:14;9.10;99.90
7564;DHT22;3823;53.586;10.040;2023-05-07T05:49:40;9.10;99.90
7564;DHT22;3823;53.586;10.040;2023-05-07T05:52:05;9.10;99.90
7564;DHT22;3823;53.586;10.040;2023-05-07T05:54:31;9.20;99.90
7564;DHT22;3823;53.586;10.040;2023-05-07T05:56:56;9.20;99.90
7564;DHT22;3823;53.586;10.040;2023-05-07T05:59:22;9.20;99.90
7564;DHT22;3823;53.586;10.040;2023-05-07T06:01:48;9.20;99.90
7564;DHT22;3823;53.586;10.040;2023-05-07T06:04:13;9.20;99.90
7564;DHT22;3823;53.586;10.040;2023-05-07T06:06:39;9.20;99.90
7564;DHT22;3823;53.586;10.040;2023-05-07T06:09:04;9.20;99.90
7564;DHT22;3823;53.586;10.040;2023-05-07T06:11:31;9.20;99.90
7564;DHT22;3823;53.586;10.040;2023-05-07T06:13:56;9.20;99.90
7564;DHT22;3823;53.586;10.040;2023-05-07T06:16:22;9.20;99.90
7564;DHT22;3823;53.586;10.040;2023-05-07T06:18:47;9.30;99.90
7564;DHT22;3823;53.586;10.040;2023-05-07T06:21:14;9.30;99.90
7564;DHT22;3823;53.586;10.040;2023-05-07T06:23:40;9.30;99.90
7564;DHT22;3823;53.586;10.040;2023-05-07T06:26:06;9.30;99.90
7564;DHT22;3823;53.586;10.040;2023-05-07T06:28:32;9.30;99.90
7564;DHT22;3823;53.586;10.040;2023-05-07T06:31:15;9.30;99.90
7564;DHT22;3823;53.586;10.040;2023-05-07T06:33:40;9.30;99.90
7564;DHT22;3823;53.586;10.040;2023-05-07T06:36:06;9.30;99.90
7564;DHT22;3823;53.586;10.040;2023-05-07T06:38:32;9.30;99.90
7564;DHT22;3823;53.586;10.040;2023-05-07T06:40:57;9.40;99.90
7564;DHT22;3823;53.586;10.040;2023-05-07T06:43:23;9.40;99.90
7564;DHT22;3823;53.586;10.040;2023-05-07T06:45:48;9.30;99.90
7564;DHT22;3823;53.586;10.040;2023-05-07T06:48:14;9.40;99.90
7564;DHT22;3823;53.586;10.040;2023-05-07T06:50:39;9.40;99.90
7564;DHT22;3823;53.586;10.040;2023-05-07T06:53:05;9.40;99.90
7564;DHT22;3823;53.586;10.040;2023-05-07T06:55:30;9.40;99.90
7564;DHT22;3823;53.586;10.040;2023-05-07T06:57:57;9.40;99.90
7564;DHT22;3823;53.586;10.040;2023-05-07T07:00:26;9.40;99.90
7564;DHT22;3823;53.586;10.040;2023-05-07T07:02:52;9.50;99.90
7564;DHT22;3823;53.586;10.040;2023-05-07T07:05:18;9.50;99.90
7564;DHT22;3823;53.586;10.040;2023-05-07T07:07:43;9.50;99.90
7564;DHT22;3823;53.586;10.040;2023-05-07T07:10:09;9.60;99.90
7564;DHT22;3823;53.586;10.040;2023-05-07T07:12:35;9.60;99.90
7564;DHT22;3823;53.586;10.040;2023-05-07T07:15:00;9.60;99.90
7564;DHT22;3823;53.586;10.040;2023-05-07T07:17:26;9.60;99.90
7564;DHT22;3823;53.586;10.040;2023-05-07T07:19:51;9.60;99.90
7564;DHT22;3823;53.586;10.040;2023-05-07T07:22:17;9.60;99.90
7564;DHT22;3823;53.586;10.040;2023-05-07T07:24:42;9.60;99.90
7564;DHT22;3823;53.586;10.040;2023-05-07T07:27:08;9.70;99.90
7564;DHT22;3823;53.586;10.040;2023-05-07T07:29:33;9.70;99.90
7564;DHT22;3823;53.586;10.040;2023-05-07T07:31:59;9.70;99.90
7564;DHT22;3823;53.586;10.040;2023-05-07T07:34:24;9.70;99.90
7564;DHT22;3823;53.586;10.040;2023-05-07T07:36:50;9.80;99.90
7564;DHT22;3823;53.586;10.040;2023-05-07T07:39:16;9.80;99.90
7564;DHT22;3823;53.586;10.040;2023-05-07T07:41:41;9.80;99.90
7564;DHT22;3823;53.586;10.040;2023-05-07T07:44:07;9.80;99.90
7564;DHT22;3823;53.586;10.040;2023-05-07T07:46:33;9.80;99.90
7564;DHT22;3823;53.586;10.040;2023-05-07T07:48:59;9.80;99.90
7564;DHT22;3823;53.586;10.040;2023-05-07T07:51:25;9.90;99.90
7564;DHT22;3823;53.586;10.040;2023-05-07T07:53:51;9.90;99.90
7564;DHT22;3823;53.586;10.040;2023-05-07T07:56:17;9.90;99.90
7564;DHT22;3823;53.586;10.040;2023-05-07T07:58:42;9.90;99.90
7564;DHT22;3823;53.586;10.040;2023-05-07T08:01:08;9.90;99.90
7564;DHT22;3823;53.586;10.040;2023-05-07T08:03:33;9.90;99.90
7564;DHT22;3823;53.586;10.040;2023-05-07T08:05:59;9.90;99.90
7564;DHT22;3823;53.586;10.040;2023-05-07T08:08:25;10.00;99.90
7564;DHT22;3823;53.586;10.040;2023-05-07T08:10:50;9.90;99.90
7564;DHT22;3823;53.586;10.040;2023-05-07T08:13:17;10.00;99.90
7564;DHT22;3823;53.586;10.040;2023-05-07T08:15:43;10.00;99.90
7564;DHT22;3823;53.586;10.040;2023-05-07T08:18:08;10.00;99.90
7564;DHT22;3823;53.586;10.040;2023-05-07T08:20:35;10.00;99.90
7564;DHT22;3823;53.586;10.040;2023-05-07T08:23:04;10.00;99.90
7564;DHT22;3823;53.586;10.040;2023-05-07T08:25:35;10.00;99.90
7564;DHT22;3823;53.586;10.040;2023-05-07T08:28:02;10.00;99.90
7564;DHT22;3823;53.586;10.040;2023-05-07T08:30:28;10.00;99.90
7564;DHT22;3823;53.586;10.040;2023-05-07T08:32:54;10.00;99.90
7564;DHT22;3823;53.586;10.040;2023-05-07T08:35:19;10.00;99.90
7564;DHT22;3823;53.586;10.040;2023-05-07T08:37:45;10.00;99.90
7564;DHT22;3823;53.586;10.040;2023-05-07T08:40:11;10.10;99.90
7564;DHT22;3823;53.586;10.040;2023-05-07T08:42:36;10.10;99.90
7564;DHT22;3823;53.586;10.040;2023-05-07T08:45:04;10.20;99.90
7564;DHT22;3823;53.586;10.040;2023-05-07T08:47:42;10.20;99.90
7564;DHT22;3823;53.586;10.040;2023-05-07T08:50:10;10.20;99.90
7564;DHT22;3823;53.586;10.040;2023-05-07T08:52:36;10.20;99.90
7564;DHT22;3823;53.586;10.040;2023-05-07T08:55:02;10.20;99.90
7564;DHT22;3823;53.586;10.040;2023-05-07T08:57:28;10.10;99.90
7564;DHT22;3823;53.586;10.040;2023-05-07T08:59:54;10.10;99.90
7564;DHT22;3823;53.586;10.040;2023-05-07T09:02:19;10.20;99.90
7564;DHT22;3823;53.586;10.040;2023-05-07T09:04:45;10.10;99.90
7564;DHT22;3823;53.586;10.040;2023-05-07T09:07:11;10.20;99.90
7564;DHT22;3823;53.586;10.040;2023-05-07T09:09:37;10.20;99.90
7564;DHT22;3823;53.586;10.040;2023-05-07T09:12:02;10.30;99.90
7564;DHT22;3823;53.586;10.040;2023-05-07T09:14:29;10.30;99.90
7564;DHT22;3823;53.586;10.040;2023-05-07T09:16:56;10.30;99.90
7564;DHT22;3823;53.586;10.040;2023-05-07T09:19:25;10.40;99.90
7564;DHT22;3823;53.586;10.040;2023-05-07T09:22:01;10.40;99.90
7564;DHT22;3823;53.586;10.040;2023-05-07T09:24:28;10.40;99.90
7564;DHT22;3823;53.586;10.040;2023-05-07T09:26:58;10.40;99.90
7564;DHT22;3823;53.586;10.040;2023-05-07T09:29:25;10.40;99.90
7564;DHT22;3823;53.586;10.040;2023-05-07T09:31:50;10.50;99.90
7564;DHT22;3823;53.586;10.040;2023-05-07T09:34:16;10.50;99.90
7564;DHT22;3823;53.586;10.040;2023-05-07T09:36:41;10.60;99.90
7564;DHT22;3823;53.586;10.040;2023-05-07T09:39:07;10.70;99.90
7564;DHT22;3823;53.586;10.040;2023-05-07T09:41:33;10.60;99.90
7564;DHT22;3823;53.586;10.040;2023-05-07T09:44:08;10.60;99.90
7564;DHT22;3823;53.586;10.040;2023-05-07T09:46:38;10.60;99.90
7564;DHT22;3823;53.586;10.040;2023-05-07T09:49:06;10.60;99.90
7564;DHT22;3823;53.586;10.040;2023-05-07T09:51:51;10.70;99.90
7564;DHT22;3823;53.586;10.040;2023-05-07T09:54:18;10.70;99.90
7564;DHT22;3823;53.586;10.040;2023-05-07T09:56:44;10.70;99.90
7564;DHT22;3823;53.586;10.040;2023-05-07T09:59:14;10.60;99.90
7564;DHT22;3823;53.586;10.040;2023-05-07T10:01:41;10.60;99.90
7564;DHT22;3823;53.586;10.040;2023-05-07T10:04:08;10.60;99.90
7564;DHT22;3823;53.586;10.040;2023-05-07T10:06:35;10.60;99.90
7564;DHT22;3823;53.586;10.040;2023-05-07T10:09:02;10.70;99.90
7564;DHT22;3823;53.586;10.040;2023-05-07T10:11:28;10.70;99.90
7564;DHT22;3823;53.586;10.040;2023-05-07T10:13:54;10.70;99.90
7564;DHT22;3823;53.586;10.040;2023-05-07T10:16:21;10.70;99.90
7564;DHT22;3823;53.586;10.040;2023-05-07T10:18:47;10.80;99.90
7564;DHT22;3823;53.586;10.040;2023-05-07T10:21:18;10.80;99.90
7564;DHT22;3823;53.586;10.040;2023-05-07T10:23:59;10.90;99.90
7564;DHT22;3823;53.586;10.040;2023-05-07T10:26:27;11.00;99.90
7564;DHT22;3823;53.586;10.040;2023-05-07T10:28:59;11.00;99.90
7564;DHT22;3823;53.586;10.040;2023-05-07T10:31:38;11.00;99.90
7564;DHT22;3823;53.586;10.040;2023-05-07T10:34:10;11.00;99.90
7564;DHT22;3823;53.586;10.040;2023-05-07T10:36:38;11.00;99.90
7564;DHT22;3823;53.586;10.040;2023-05-07T10:39:05;11.00;99.90
7564;DHT22;3823;53.586;10.040;2023-05-07T10:41:31;11.00;99.90
7564;DHT22;3823;53.586;10.040;2023-05-07T10:43:57;11.10;99.90
7564;DHT22;3823;53.586;10.040;2023-05-07T10:46:26;11.10;99.90
7564;DHT22;3823;53.586;10.040;2023-05-07T10:51:32;11.10;99.90
7564;DHT22;3823;53.586;10.040;2023-05-07T10:56:37;11.20;99.90
7564;DHT22;3823;53.586;10.040;2023-05-07T11:01:56;11.40;99.90
7564;DHT22;3823;53.586;10.040;2023-05-07T11:04:23;11.30;94.90
7564;DHT22;3823;53.586;10.040;2023-05-07T11:09:57;11.50;77.40
7564;DHT22;3823;53.586;10.040;2023-05-07T11:15:05;11.60;45.90
7564;DHT22;3823;53.586;10.040;2023-05-07T11:17:32;11.60;44.00
7564;DHT22;3823;53.586;10.040;2023-05-07T11:20:00;11.60;41.00
7564;DHT22;3823;53.586;10.040;2023-05-07T11:25:02;11.80;24.70
7564;DHT22;3823;53.586;10.040;2023-05-07T11:27:29;11.90;1.00
7564;DHT22;3823;53.586;10.040;2023-05-07T11:29:55;12.00;1.00
7564;DHT22;3823;53.586;10.040;2023-05-07T11:32:28;12.20;1.00
7564;DHT22;3823;53.586;10.040;2023-05-07T11:34:55;12.20;1.00
7564;DHT22;3823;53.586;10.040;2023-05-07T11:37:23;12.30;1.00
7564;DHT22;3823;53.586;10.040;2023-05-07T11:39:49;12.40;1.00
7564;DHT22;3823;53.586;10.040;2023-05-07T11:42:29;12.40;1.00
7564;DHT22;3823;53.586;10.040;2023-05-07T11:44:55;12.40;1.00
7564;DHT22;3823;53.586;10.040;2023-05-07T11:47:21;12.40;1.00
7564;DHT22;3823;53.586;10.040;2023-05-07T11:49:52;12.40;1.00
7564;DHT22;3823;53.586;10.040;2023-05-07T11:52:19;12.30;1.00
7564;DHT22;3823;53.586;10.040;2023-05-07T11:54:55;12.40;1.00
7564;DHT22;3823;53.586;10.040;2023-05-07T11:57:22;12.50;1.00
7564;DHT22;3823;53.586;10.040;2023-05-07T11:59:52;12.70;1.00
7564;DHT22;3823;53.586;10.040;2023-05-07T12:02:17;12.70;1.00
7564;DHT22;3823;53.586;10.040;2023-05-07T12:04:43;12.70;1.00
7564;DHT22;3823;53.586;10.040;2023-05-07T12:07:14;12.70;1.00
7564;DHT22;3823;53.586;10.040;2023-05-07T12:09:43;12.80;1.00
7564;DHT22;3823;53.586;10.040;2023-05-07T12:12:09;13.00;1.00
7564;DHT22;3823;53.586;10.040;2023-05-07T12:14:39;13.10;1.00
7564;DHT22;3823;53.586;10.040;2023-05-07T12:17:05;13.00;1.00
7564;DHT22;3823;53.586;10.040;2023-05-07T12:19:34;13.00;1.00
7564;DHT22;3823;53.586;10.040;2023-05-07T12:22:00;12.90;1.00
7564;DHT22;3823;53.586;10.040;2023-05-07T12:24:26;13.00;1.00
7564;DHT22;3823;53.586;10.040;2023-05-07T12:26:52;13.00;1.00
7564;DHT22;3823;53.586;10.040;2023-05-07T12:29:21;13.00;1.00
7564;DHT22;3823;53.586;10.040;2023-05-07T12:31:47;13.00;1.00
7564;DHT22;3823;53.586;10.040;2023-05-07T12:34:15;13.00;1.00
7564;DHT22;3823;53.586;10.040;2023-05-07T12:36:40;13.10;1.00
7564;DHT22;3823;53.586;10.040;2023-05-07T12:39:07;13.10;1.00
7564;DHT22;3823;53.586;10.040;2023-05-07T12:41:53;13.20;1.00
7564;DHT22;3823;53.586;10.040;2023-05-07T12:44:22;13.30;1.00
7564;DHT22;3823;53.586;10.040;2023-05-07T12:46:48;13.30;1.00
7564;DHT22;3823;53.586;10.040;2023-05-07T12:49:14;13.30;1.00
7564;DHT22;3823;53.586;10.040;2023-05-07T12:51:40;13.40;1.00
7564;DHT22;3823;53.586;10.040;2023-05-07T12:54:05;13.40;1.00
7564;DHT22;3823;53.586;10.040;2023-05-07T12:56:31;13.40;1.00
7564;DHT22;3823;53.586;10.040;2023-05-07T12:58:57;13.50;1.00
7564;DHT22;3823;53.586;10.040;2023-05-07T13:01:29;13.40;1.00
7564;DHT22;3823;53.586;10.040;2023-05-07T13:03:55;13.50;1.00
7564;DHT22;3823;53.586;10.040;2023-05-07T13:06:21;13.50;1.00
7564;DHT22;3823;53.586;10.040;2023-05-07T13:08:46;13.50;1.00
7564;DHT22;3823;53.586;10.040;2023-05-07T13:11:12;13.60;1.00
7564;DHT22;3823;53.586;10.040;2023-05-07T13:13:39;13.70;1.00
7564;DHT22;3823;53.586;10.040;2023-05-07T13:16:07;13.70;1.00
7564;DHT22;3823;53.586;10.040;2023-05-07T13:18:33;13.80;1.00
7564;DHT22;3823;53.586;10.040;2023-05-07T13:21:00;13.90;1.00
7564;DHT22;3823;53.586;10.040;2023-05-07T13:23:26;13.90;1.00
7564;DHT22;3823;53.586;10.040;2023-05-07T13:25:52;13.90;1.00
7564;DHT22;3823;53.586;10.040;2023-05-07T13:28:21;13.90;1.00
7564;DHT22;3823;53.586;10.040;2023-05-07T13:30:47;14.00;1.00
7564;DHT22;3823;53.586;10.040;2023-05-07T13:33:13;14.20;1.00
7564;DHT22;3823;53.586;10.040;2023-05-07T13:35:39;14.30;1.00
7564;DHT22;3823;53.586;10.040;2023-05-07T13:38:05;14.30;1.00
7564;DHT22;3823;53.586;10.040;2023-05-07T13:40:30;14.20;1.00
7564;DHT22;3823;53.586;10.040;2023-05-07T13:42:59;14.20;1.00
7564;DHT22;3823;53.586;10.040;2023-05-07T13:45:27;14.20;1.00
7564;DHT22;3823;53.586;10.040;2023-05-07T13:47:55;14.30;1.00
7564;DHT22;3823;53.586;10.040;2023-05-07T13:50:20;14.30;1.00
7564;DHT22;3823;53.586;10.040;2023-05-07T13:52:46;14.40;1.00
7564;DHT22;3823;53.586;10.040;2023-05-07T13:55:17;14.40;1.00
7564;DHT22;3823;53.586;10.040;2023-05-07T13:57:43;14.40;1.00
7564;DHT22;3823;53.586;10.040;2023-05-07T14:00:09;14.60;1.00
7564;DHT22;3823;53.586;10.040;2023-05-07T14:02:34;14.60;1.00
7564;DHT22;3823;53.586;10.040;2023-05-07T14:05:00;14.60;1.00
7564;DHT22;3823;53.586;10.040;2023-05-07T14:07:26;14.60;1.00
7564;DHT22;3823;53.586;10.040;2023-05-07T14:09:51;14.60;1.00
7564;DHT22;3823;53.586;10.040;2023-05-07T14:12:17;14.70;1.00
7564;DHT22;3823;53.586;10.040;2023-05-07T14:14:42;14.70;1.00
7564;DHT22;3823;53.586;10.040;2023-05-07T14:17:08;14.80;1.00
7564;DHT22;3823;53.586;10.040;2023-05-07T14:19:33;14.90;1.00
7564;DHT22;3823;53.586;10.040;2023-05-07T14:21:59;14.90;1.00
7564;DHT22;3823;53.586;10.040;2023-05-07T14:24:24;14.90;1.00
7564;DHT22;3823;53.586;10.040;2023-05-07T14:26:50;15.00;1.00
7564;DHT22;3823;53.586;10.040;2023-05-07T14:29:16;15.10;1.00
7564;DHT22;3823;53.586;10.040;2023-05-07T14:31:44;14.90;1.00
7564;DHT22;3823;53.586;10.040;2023-05-07T14:34:10;14.90;1.00
7564;DHT22;3823;53.586;10.040;2023-05-07T14:36:35;14.90;1.00
7564;DHT22;3823;53.586;10.040;2023-05-07T14:39:01;15.10;1.00
7564;DHT22;3823;53.586;10.040;2023-05-07T14:41:26;15.10;1.00
7564;DHT22;3823;53.586;10.040;2023-05-07T14:43:52;14.90;1.00
7564;DHT22;3823;53.586;10.040;2023-05-07T14:46:18;14.90;1.00
7564;DHT22;3823;53.586;10.040;2023-05-07T14:48:44;14.90;1.00
7564;DHT22;3823;53.586;10.040;2023-05-07T14:51:11;14.90;1.00
7564;DHT22;3823;53.586;10.040;2023-05-07T14:53:37;14.90;1.00
7564;DHT22;3823;53.586;10.040;2023-05-07T14:56:02;15.00;1.00
7564;DHT22;3823;53.586;10.040;2023-05-07T14:58:28;14.90;1.00
7564;DHT22;3823;53.586;10.040;2023-05-07T15:00:54;14.90;1.00
7564;DHT22;3823;53.586;10.040;2023-05-07T15:03:19;14.90;1.00
7564;DHT22;3823;53.586;10.040;2023-05-07T15:05:45;15.00;1.00
7564;DHT22;3823;53.586;10.040;2023-05-07T15:08:10;15.00;1.00
7564;DHT22;3823;53.586;10.040;2023-05-07T15:10:37;15.10;1.00
7564;DHT22;3823;53.586;10.040;2023-05-07T15:13:06;15.20;1.00
7564;DHT22;3823;53.586;10.040;2023-05-07T15:15:32;15.20;1.00
7564;DHT22;3823;53.586;10.040;2023-05-07T15:17:58;15.30;1.00
7564;DHT22;3823;53.586;10.040;2023-05-07T15:20:25;15.40;1.00
7564;DHT22;3823;53.586;10.040;2023-05-07T15:22:51;15.40;1.00
7564;DHT22;3823;53.586;10.040;2023-05-07T15:25:16;15.30;1.00
7564;DHT22;3823;53.586;10.040;2023-05-07T15:27:42;15.20;1.00
7564;DHT22;3823;53.586;10.040;2023-05-07T15:30:08;15.20;1.00
7564;DHT22;3823;53.586;10.040;2023-05-07T15:32:35;15.20;1.00
7564;DHT22;3823;53.586;10.040;2023-05-07T15:35:01;15.20;1.00
7564;DHT22;3823;53.586;10.040;2023-05-07T15:37:27;15.20;1.00
7564;DHT22;3823;53.586;10.040;2023-05-07T15:39:52;15.20;1.00
7564;DHT22;3823;53.586;10.040;2023-05-07T15:42:18;15.20;1.00
7564;DHT22;3823;53.586;10.040;2023-05-07T15:44:43;15.20;1.00
7564;DHT22;3823;53.586;10.040;2023-05-07T15:47:09;15.30;1.00
7564;DHT22;3823;53.586;10.040;2023-05-07T15:49:34;15.30;1.00
7564;DHT22;3823;53.586;10.040;2023-05-07T15:52:00;15.30;1.00
7564;DHT22;3823;53.586;10.040;2023-05-07T15:54:26;15.30;1.00
7564;DHT22;3823;53.586;10.040;2023-05-07T15:56:52;15.30;1.00
7564;DHT22;3823;53.586;10.040;2023-05-07T15:59:17;15.40;1.00
7564;DHT22;3823;53.586;10.040;2023-05-07T16:01:43;15.40;1.00
7564;DHT22;3823;53.586;10.040;2023-05-07T16:04:09;15.50;1.00
7564;DHT22;3823;53.586;10.040;2023-05-07T16:06:35;15.50;1.00
7564;DHT22;3823;53.586;10.040;2023-05-07T16:09:00;15.40;1.00
7564;DHT22;3823;53.586;10.040;2023-05-07T16:11:26;15.50;1.00
7564;DHT22;3823;53.586;10.040;2023-05-07T16:13:55;15.40;1.00
7564;DHT22;3823;53.586;10.040;2023-05-07T16:16:20;15.40;1.00
7564;DHT22;3823;53.586;10.040;2023-05-07T16:18:46;15.50;1.00
7564;DHT22;3823;53.586;10.040;2023-05-07T16:21:12;15.50;1.00
7564;DHT22;3823;53.586;10.040;2023-05-07T16:23:38;15.50;1.00
7564;DHT22;3823;53.586;10.040;2023-05-07T16:26:03;15.40;1.00
7564;DHT22;3823;53.586;10.040;2023-05-07T16:28:29;15.40;1.00
7564;DHT22;3823;53.586;10.040;2023-05-07T16:30:55;15.50;1.00
7564;DHT22;3823;53.586;10.040;2023-05-07T16:33:21;15.40;1.00
7564;DHT22;3823;53.586;10.040;2023-05-07T16:35:52;15.40;1.00
7564;DHT22;3823;53.586;10.040;2023-05-07T16:38:18;15.50;1.00
7564;DHT22;3823;53.586;10.040;2023-05-07T16:40:43;15.50;1.00
7564;DHT22;3823;53.586;10.040;2023-05-07T16:43:09;15.50;1.00
7564;DHT22;3823;53.586;10.040;2023-05-07T16:45:35;15.50;1.00
7564;DHT22;3823;53.586;10.040;2023-05-07T16:48:01;15.40;1.00
7564;DHT22;3823;53.586;10.040;2023-05-07T16:50:27;15.50;1.00
7564;DHT22;3823;53.586;10.040;2023-05-07T16:52:53;15.50;1.00
7564;DHT22;3823;53.586;10.040;2023-05-07T16:55:18;15.50;1.00
7564;DHT22;3823;53.586;10.040;2023-05-07T16:57:44;15.50;1.00
7564;DHT22;3823;53.586;10.040;2023-05-07T17:00:10;15.50;1.00
7564;DHT22;3823;53.586;10.040;2023-05-07T17:02:36;15.50;1.00
7564;DHT22;3823;53.586;10.040;2023-05-07T17:05:03;15.50;1.00
7564;DHT22;3823;53.586;10.040;2023-05-07T17:07:30;15.50;1.00
7564;DHT22;3823;53.586;10.040;2023-05-07T17:09:56;15.60;1.00
7564;DHT22;3823;53.586;10.040;2023-05-07T17:12:21;15.60;1.00
7564;DHT22;3823;53.586;10.040;2023-05-07T17:14:47;15.60;1.00
7564;DHT22;3823;53.586;10.040;2023-05-07T17:17:12;15.60;1.00
7564;DHT22;3823;53.586;10.040;2023-05-07T17:19:38;15.60;1.00
7564;DHT22;3823;53.586;10.040;2023-05-07T17:22:04;15.60;1.00
7564;DHT22;3823;53.586;10.040;2023-05-07T17:24:29;15.60;1.00
7564;DHT22;3823;53.586;10.040;2023-05-07T17:26:55;15.50;1.00
7564;DHT22;3823;53.586;10.040;2023-05-07T17:29:20;15.50;1.00
7564;DHT22;3823;53.586;10.040;2023-05-07T17:31:46;15.50;1.00
7564;DHT22;3823;53.586;10.040;2023-05-07T17:34:13;15.40;1.00
7564;DHT22;3823;53.586;10.040;2023-05-07T17:36:38;15.40;1.00
7564;DHT22;3823;53.586;10.040;2023-05-07T17:39:04;15.40;1.00
7564;DHT22;3823;53.586;10.040;2023-05-07T17:41:29;15.40;1.00
7564;DHT22;3823;53.586;10.040;2023-05-07T17:43:55;15.40;1.00
7564;DHT22;3823;53.586;10.040;2023-05-07T17:46:20;15.40;1.00
7564;DHT22;3823;53.586;10.040;2023-05-07T17:48:46;15.30;1.00
7564;DHT22;3823;53.586;10.040;2023-05-07T17:51:11;15.30;1.00
7564;DHT22;3823;53.586;10.040;2023-05-07T17:53:37;15.30;1.00
7564;DHT22;3823;53.586;10.040;2023-05-07T17:56:03;15.30;1.00
7564;DHT22;3823;53.586;10.040;2023-05-07T17:58:30;15.20;1.00
7564;DHT22;3823;53.586;10.040;2023-05-07T18:00:56;15.20;1.00
7564;DHT22;3823;53.586;10.040;2023-05-07T18:03:21;15.20;1.00
7564;DHT22;3823;53.586;10.040;2023-05-07T18:05:49;15.20;1.00
7564;DHT22;3823;53.586;10.040;2023-05-07T18:08:15;15.20;1.00
7564;DHT22;3823;53.586;10.040;2023-05-07T18:10:40;15.10;1.00
7564;DHT22;3823;53.586;10.040;2023-05-07T18:13:06;15.10;1.00
7564;DHT22;3823;53.586;10.040;2023-05-07T18:15:31;15.10;1.00
7564;DHT22;3823;53.586;10.040;2023-05-07T18:17:57;15.10;1.00
7564;DHT22;3823;53.586;10.040;2023-05-07T18:20:22;15.00;1.00
7564;DHT22;3823;53.586;10.040;2023-05-07T18:22:48;15.00;1.00
7564;DHT22;3823;53.586;10.040;2023-05-07T18:25:14;15.00;1.00
7564;DHT22;3823;53.586;10.040;2023-05-07T18:27:39;14.90;1.00
7564;DHT22;3823;53.586;10.040;2023-05-07T18:30:05;14.90;1.00
7564;DHT22;3823;53.586;10.040;2023-05-07T18:32:31;14.90;1.00
7564;DHT22;3823;53.586;10.040;2023-05-07T18:34:57;14.80;1.00
7564;DHT22;3823;53.586;10.040;2023-05-07T18:37:23;14.80;1.00
7564;DHT22;3823;53.586;10.040;2023-05-07T18:39:48;14.80;1.00
7564;DHT22;3823;53.586;10.040;2023-05-07T18:42:14;14.70;1.00
7564;DHT22;3823;53.586;10.040;2023-05-07T18:44:40;14.70;1.00
7564;DHT22;3823;53.586;10.040;2023-05-07T18:47:05;14.70;1.00
7564;DHT22;3823;53.586;10.040;2023-05-07T18:49:32;14.60;1.00
7564;DHT22;3823;53.586;10.040;2023-05-07T18:51:58;14.60;1.00
7564;DHT22;3823;53.586;10.040;2023-05-07T18:54:23;14.60;1.00
7564;DHT22;3823;53.586;10.040;2023-05-07T18:56:49;14.60;1.00
7564;DHT22;3823;53.586;10.040;2023-05-07T18:59:14;14.50;1.00
7564;DHT22;3823;53.586;10.040;2023-05-07T19:01:40;14.50;1.00
7564;DHT22;3823;53.586;10.040;2023-05-07T19:04:06;14.40;1.00
7564;DHT22;3823;53.586;10.040;2023-05-07T19:06:31;14.40;1.00
7564;DHT22;3823;53.586;10.040;2023-05-07T19:08:57;14.40;1.00
7564;DHT22;3823;53.586;10.040;2023-05-07T19:11:23;14.30;1.00
7564;DHT22;3823;53.586;10.040;2023-05-07T19:13:48;14.30;1.00
7564;DHT22;3823;53.586;10.040;2023-05-07T19:16:14;14.30;1.00
7564;DHT22;3823;53.586;10.040;2023-05-07T19:18:40;14.30;1.00
7564;DHT22;3823;53.586;10.040;2023-05-07T19:21:06;14.20;1.00
7564;DHT22;3823;53.586;10.040;2023-05-07T19:23:32;14.10;1.00
7564;DHT22;3823;53.586;10.040;2023-05-07T19:25:58;14.10;1.00
7564;DHT22;3823;53.586;10.040;2023-05-07T19:28:24;14.10;1.00
7564;DHT22;3823;53.586;10.040;2023-05-07T19:30:51;14.00;1.00
7564;DHT22;3823;53.586;10.040;2023-05-07T19:33:17;14.00;1.00
7564;DHT22;3823;53.586;10.040;2023-05-07T19:35:43;14.00;1.00
7564;DHT22;3823;53.586;10.040;2023-05-07T19:38:09;14.00;1.00
7564;DHT22;3823;53.586;10.040;2023-05-07T19:40:34;13.90;1.00
7564;DHT22;3823;53.586;10.040;2023-05-07T19:43:00;13.90;1.00
7564;DHT22;3823;53.586;10.040;2023-05-07T19:45:26;13.90;1.00
7564;DHT22;3823;53.586;10.040;2023-05-07T19:47:51;13.80;1.00
7564;DHT22;3823;53.586;10.040;2023-05-07T19:50:17;13.80;1.00
7564;DHT22;3823;53.586;10.040;2023-05-07T19:52:43;13.80;1.00
7564;DHT22;3823;53.586;10.040;2023-05-07T19:55:09;13.70;1.00
7564;DHT22;3823;53.586;10.040;2023-05-07T19:57:34;13.70;1.00
7564;DHT22;3823;53.586;10.040;2023-05-07T20:00:00;13.60;1.00
7564;DHT22;3823;53.586;10.040;2023-05-07T20:02:26;13.60;1.00
7564;DHT22;3823;53.586;10.040;2023-05-07T20:04:52;13.60;1.00
7564;DHT22;3823;53.586;10.040;2023-05-07T20:07:19;13.60;1.00
7564;DHT22;3823;53.586;10.040;2023-05-07T20:09:45;13.50;1.00
7564;DHT22;3823;53.586;10.040;2023-05-07T20:12:10;13.50;1.00